sensor_id;sensor_type;location;lat;lon;timestamp;P1;durP1;ratioP1;P2;durP2;ratioP2
51616;SDS011;37697;52.588;13.394;2023-11-21T00:01:18;19.50;;;10.80;;
51616;SDS011;37697;52.588;13.394;2023-11-21T00:06:44;18.60;;;11.70;;
51616;SDS011;37697;52.588;13.394;2023-11-21T00:12:05;20.80;;;12.00;;
51616;SDS011;37697;52.588;13.394;2023-11-21T00:17:35;25.90;;;14.00;;
51616;SDS011;37697;52.588;13.394;2023-11-21T00:23:01;23.80;;;12.60;;
51616;SDS011;37697;52.588;13.394;2023-11-21T00:28:27;30.40;;;15.60;;
51616;SDS011;37697;52.588;13.394;2023-11-21T00:33:53;33.30;;;15.70;;
51616;SDS011;37697;52.588;13.394;2023-11-21T00:39:18;42.70;;;20.30;;
51616;SDS011;37697;52.588;13.394;2023-11-21T00:44:44;36.90;;;17.70;;
51616;SDS011;37697;52.588;13.394;2023-11-21T00:50:11;41.30;;;19.70;;
51616;SDS011;37697;52.588;13.394;2023-11-21T00:55:36;43.10;;;21.80;;
51616;SDS011;37697;52.588;13.394;2023-11-21T01:01:02;39.80;;;19.70;;
51616;SDS011;37697;52.588;13.394;2023-11-21T01:06:28;46.60;;;18.60;;
51616;SDS011;37697;52.588;13.394;2023-11-21T01:11:54;34.40;;;16.30;;
51616;SDS011;37697;52.588;13.394;2023-11-21T01:17:20;30.60;;;14.20;;
51616;SDS011;37697;52.588;13.394;2023-11-21T01:22:46;37.20;;;15.50;;
51616;SDS011;37697;52.588;13.394;2023-11-21T01:28:12;27.30;;;13.80;;
51616;SDS011;37697;52.588;13.394;2023-11-21T01:33:38;32.70;;;14.90;;
51616;SDS011;37697;52.588;13.394;2023-11-21T01:39:03;33.90;;;14.40;;
51616;SDS011;37697;52.588;13.394;2023-11-21T01:44:30;26.40;;;11.80;;
51616;SDS011;37697;52.588;13.394;2023-11-21T01:49:56;24.10;;;11.30;;
51616;SDS011;37697;52.588;13.394;2023-11-21T01:55:22;23.50;;;11.10;;
51616;SDS011;37697;52.588;13.394;2023-11-21T02:00:48;20.00;;;9.90;;
51616;SDS011;37697;52.588;13.394;2023-11-21T02:06:14;15.80;;;8.60;;
51616;SDS011;37697;52.588;13.394;2023-11-21T02:11:40;17.20;;;9.10;;
51616;SDS011;37697;52.588;13.394;2023-11-21T02:17:06;14.50;;;8.40;;
51616;SDS011;37697;52.588;13.394;2023-11-21T02:22:32;12.10;;;7.70;;
51616;SDS011;37697;52.588;13.394;2023-11-21T02:28:05;9.90;;;7.30;;
51616;SDS011;37697;52.588;13.394;2023-11-21T02:33:31;8.80;;;6.60;;
51616;SDS011;37697;52.588;13.394;2023-11-21T02:38:56;12.20;;;8.00;;
51616;SDS011;37697;52.588;13.394;2023-11-21T02:44:22;10.20;;;7.10;;
51616;SDS011;37697;52.588;13.394;2023-11-21T02:49:40;10.10;;;7.80;;
51616;SDS011;37697;52.588;13.394;2023-11-21T02:55:07;11.50;;;7.70;;
51616;SDS011;37697;52.588;13.394;2023-11-21T03:00:35;10.80;;;7.50;;
51616;SDS011;37697;52.588;13.394;2023-11-21T03:06:00;11.10;;;8.20;;
51616;SDS011;37697;52.588;13.394;2023-11-21T03:11:26;11.50;;;9.00;;
51616;SDS011;37697;52.588;13.394;2023-11-21T03:16:54;9.90;;;7.90;;
51616;SDS011;37697;52.588;13.394;2023-11-21T03:22:20;10.60;;;7.60;;
51616;SDS011;37697;52.588;13.394;2023-11-21T03:27:46;9.40;;;7.30;;
51616;SDS011;37697;52.588;13.394;2023-11-21T03:33:12;9.90;;;7.70;;
51616;SDS011;37697;52.588;13.394;2023-11-21T03:38:38;11.00;;;7.70;;
51616;SDS011;37697;52.588;13.394;2023-11-21T03:44:04;11.20;;;6.80;;
51616;SDS011;37697;52.588;13.394;2023-11-21T03:49:29;10.90;;;7.90;;
51616;SDS011;37697;52.588;13.394;2023-11-21T03:54:55;13.70;;;9.00;;
51616;SDS011;37697;52.588;13.394;2023-11-21T04:00:22;12.30;;;8.90;;
51616;SDS011;37697;52.588;13.394;2023-11-21T04:05:48;12.10;;;7.60;;
51616;SDS011;37697;52.588;13.394;2023-11-21T04:11:13;12.90;;;8.60;;
51616;SDS011;37697;52.588;13.394;2023-11-21T04:16:40;10.60;;;7.90;;
51616;SDS011;37697;52.588;13.394;2023-11-21T04:22:06;12.00;;;8.20;;
51616;SDS011;37697;52.588;13.394;2023-11-21T04:27:31;12.30;;;7.80;;
51616;SDS011;37697;52.588;13.394;2023-11-21T04:32:57;13.50;;;9.10;;
51616;SDS011;37697;52.588;13.394;2023-11-21T04:38:23;12.00;;;8.80;;
51616;SDS011;37697;52.588;13.394;2023-11-21T04:43:49;13.40;;;9.40;;
51616;SDS011;37697;52.588;13.394;2023-11-21T04:49:15;12.40;;;8.50;;
51616;SDS011;37697;52.588;13.394;2023-11-21T04:54:40;12.00;;;8.50;;
51616;SDS011;37697;52.588;13.394;2023-11-21T05:00:08;11.00;;;7.60;;
51616;SDS011;37697;52.588;13.394;2023-11-21T05:05:35;10.50;;;7.40;;
51616;SDS011;37697;52.588;13.394;2023-11-21T05:11:01;12.00;;;8.20;;
51616;SDS011;37697;52.588;13.394;2023-11-21T05:16:21;12.70;;;7.60;;
51616;SDS011;37697;52.588;13.394;2023-11-21T05:21:47;12.80;;;8.40;;
51616;SDS011;37697;52.588;13.394;2023-11-21T05:27:12;13.40;;;8.90;;
51616;SDS011;37697;52.588;13.394;2023-11-21T05:32:38;11.70;;;7.80;;
51616;SDS011;37697;52.588;13.394;2023-11-21T05:38:04;14.60;;;7.80;;
51616;SDS011;37697;52.588;13.394;2023-11-21T05:43:30;10.50;;;7.50;;
51616;SDS011;37697;52.588;13.394;2023-11-21T05:48:58;10.40;;;7.00;;
51616;SDS011;37697;52.588;13.394;2023-11-21T05:54:24;11.00;;;7.40;;
51616;SDS011;37697;52.588;13.394;2023-11-21T05:59:50;9.70;;;6.70;;
51616;SDS011;37697;52.588;13.394;2023-11-21T06:05:16;10.70;;;6.70;;
51616;SDS011;37697;52.588;13.394;2023-11-21T06:10:43;9.00;;;6.30;;
51616;SDS011;37697;52.588;13.394;2023-11-21T06:16:10;8.20;;;5.50;;
51616;SDS011;37697;52.588;13.394;2023-11-21T06:21:36;7.40;;;5.00;;
51616;SDS011;37697;52.588;13.394;2023-11-21T06:27:02;8.10;;;5.30;;
51616;SDS011;37697;52.588;13.394;2023-11-21T06:32:29;6.70;;;4.50;;
51616;SDS011;37697;52.588;13.394;2023-11-21T06:37:55;6.60;;;4.30;;
51616;SDS011;37697;52.588;13.394;2023-11-21T06:43:21;6.10;;;4.10;;
51616;SDS011;37697;52.588;13.394;2023-11-21T06:48:46;6.90;;;4.20;;
51616;SDS011;37697;52.588;13.394;2023-11-21T06:54:12;7.00;;;4.30;;
51616;SDS011;37697;52.588;13.394;2023-11-21T06:59:38;6.40;;;4.30;;
51616;SDS011;37697;52.588;13.394;2023-11-21T07:05:04;9.40;;;5.70;;
51616;SDS011;37697;52.588;13.394;2023-11-21T07:10:30;7.20;;;4.90;;
51616;SDS011;37697;52.588;13.394;2023-11-21T07:15:54;7.30;;;4.70;;
51616;SDS011;37697;52.588;13.394;2023-11-21T07:21:20;6.90;;;4.80;;
51616;SDS011;37697;52.588;13.394;2023-11-21T07:26:46;7.00;;;4.90;;
51616;SDS011;37697;52.588;13.394;2023-11-21T07:32:11;6.40;;;4.70;;
51616;SDS011;37697;52.588;13.394;2023-11-21T07:37:37;6.60;;;4.30;;
51616;SDS011;37697;52.588;13.394;2023-11-21T07:43:03;6.90;;;4.70;;
51616;SDS011;37697;52.588;13.394;2023-11-21T07:48:29;8.10;;;4.90;;
51616;SDS011;37697;52.588;13.394;2023-11-21T07:53:55;6.90;;;4.70;;
51616;SDS011;37697;52.588;13.394;2023-11-21T07:59:20;8.00;;;5.10;;
51616;SDS011;37697;52.588;13.394;2023-11-21T08:04:46;6.00;;;4.30;;
51616;SDS011;37697;52.588;13.394;2023-11-21T08:10:18;8.60;;;4.30;;
51616;SDS011;37697;52.588;13.394;2023-11-21T08:15:44;6.30;;;4.50;;
51616;SDS011;37697;52.588;13.394;2023-11-21T08:21:11;9.10;;;5.30;;
51616;SDS011;37697;52.588;13.394;2023-11-21T08:26:37;6.90;;;4.60;;
51616;SDS011;37697;52.588;13.394;2023-11-21T08:32:04;6.50;;;4.40;;
51616;SDS011;37697;52.588;13.394;2023-11-21T08:37:31;5.70;;;4.30;;
51616;SDS011;37697;52.588;13.394;2023-11-21T08:42:57;7.60;;;4.70;;
51616;SDS011;37697;52.588;13.394;2023-11-21T08:48:23;5.90;;;4.10;;
51616;SDS011;37697;52.588;13.394;2023-11-21T08:53:49;7.00;;;4.30;;
51616;SDS011;37697;52.588;13.394;2023-11-21T08:59:14;7.10;;;4.10;;
51616;SDS011;37697;52.588;13.394;2023-11-21T09:04:40;8.80;;;4.70;;
51616;SDS011;37697;52.588;13.394;2023-11-21T09:10:07;10.50;;;5.60;;
51616;SDS011;37697;52.588;13.394;2023-11-21T09:15:34;9.50;;;5.60;;
51616;SDS011;37697;52.588;13.394;2023-11-21T09:21:00;10.20;;;5.40;;
51616;SDS011;37697;52.588;13.394;2023-11-21T09:26:25;13.60;;;6.30;;
51616;SDS011;37697;52.588;13.394;2023-11-21T09:31:51;12.00;;;5.70;;
51616;SDS011;37697;52.588;13.394;2023-11-21T09:37:17;14.10;;;6.40;;
51616;SDS011;37697;52.588;13.394;2023-11-21T09:42:46;17.00;;;8.50;;
51616;SDS011;37697;52.588;13.394;2023-11-21T09:48:17;17.70;;;8.50;;
51616;SDS011;37697;52.588;13.394;2023-11-21T09:53:43;15.40;;;7.10;;
51616;SDS011;37697;52.588;13.394;2023-11-21T09:59:13;15.40;;;6.80;;
51616;SDS011;37697;52.588;13.394;2023-11-21T10:04:44;12.80;;;6.10;;
51616;SDS011;37697;52.588;13.394;2023-11-21T10:10:10;10.70;;;5.50;;
51616;SDS011;37697;52.588;13.394;2023-11-21T10:15:33;11.60;;;5.70;;
51616;SDS011;37697;52.588;13.394;2023-11-21T10:20:59;11.20;;;5.80;;
51616;SDS011;37697;52.588;13.394;2023-11-21T10:26:25;7.50;;;4.40;;
51616;SDS011;37697;52.588;13.394;2023-11-21T10:31:57;11.70;;;5.00;;
51616;SDS011;37697;52.588;13.394;2023-11-21T10:37:24;8.30;;;4.20;;
51616;SDS011;37697;52.588;13.394;2023-11-21T10:42:49;9.50;;;4.70;;
51616;SDS011;37697;52.588;13.394;2023-11-21T10:48:15;7.40;;;3.70;;
51616;SDS011;37697;52.588;13.394;2023-11-21T10:53:42;5.60;;;2.90;;
51616;SDS011;37697;52.588;13.394;2023-11-21T10:59:08;3.80;;;2.30;;
51616;SDS011;37697;52.588;13.394;2023-11-21T11:04:37;4.40;;;2.80;;
51616;SDS011;37697;52.588;13.394;2023-11-21T11:10:03;5.30;;;2.50;;
51616;SDS011;37697;52.588;13.394;2023-11-21T11:15:30;4.60;;;2.60;;
51616;SDS011;37697;52.588;13.394;2023-11-21T11:20:56;3.60;;;2.30;;
51616;SDS011;37697;52.588;13.394;2023-11-21T11:26:34;3.60;;;2.50;;
51616;SDS011;37697;52.588;13.394;2023-11-21T11:32:09;4.20;;;2.40;;
51616;SDS011;37697;52.588;13.394;2023-11-21T11:37:45;5.60;;;2.90;;
51616;SDS011;37697;52.588;13.394;2023-11-21T11:43:12;3.70;;;2.50;;
51616;SDS011;37697;52.588;13.394;2023-11-21T11:48:49;4.90;;;2.60;;
51616;SDS011;37697;52.588;13.394;2023-11-21T11:54:35;3.70;;;2.40;;
51616;SDS011;37697;52.588;13.394;2023-11-21T12:00:08;4.70;;;2.50;;
51616;SDS011;37697;52.588;13.394;2023-11-21T12:05:49;5.30;;;2.90;;
51616;SDS011;37697;52.588;13.394;2023-11-21T12:11:18;4.80;;;3.40;;
51616;SDS011;37697;52.588;13.394;2023-11-21T12:16:44;5.10;;;3.20;;
51616;SDS011;37697;52.588;13.394;2023-11-21T12:22:11;5.50;;;3.80;;
51616;SDS011;37697;52.588;13.394;2023-11-21T12:27:37;4.80;;;3.10;;
51616;SDS011;37697;52.588;13.394;2023-11-21T12:33:03;5.30;;;3.30;;
51616;SDS011;37697;52.588;13.394;2023-11-21T12:38:34;5.50;;;3.30;;
51616;SDS011;37697;52.588;13.394;2023-11-21T12:44:00;5.20;;;3.50;;
51616;SDS011;37697;52.588;13.394;2023-11-21T12:49:26;6.30;;;4.30;;
51616;SDS011;37697;52.588;13.394;2023-11-21T12:54:52;6.60;;;3.90;;
51616;SDS011;37697;52.588;13.394;2023-11-21T13:00:18;6.10;;;4.00;;
51616;SDS011;37697;52.588;13.394;2023-11-21T13:05:48;7.00;;;4.40;;
51616;SDS011;37697;52.588;13.394;2023-11-21T13:11:17;9.40;;;5.60;;
51616;SDS011;37697;52.588;13.394;2023-11-21T13:16:43;9.40;;;5.90;;
51616;SDS011;37697;52.588;13.394;2023-11-21T13:22:09;11.10;;;7.20;;
51616;SDS011;37697;52.588;13.394;2023-11-21T13:27:34;11.40;;;7.60;;
51616;SDS011;37697;52.588;13.394;2023-11-21T13:33:00;13.30;;;7.70;;
51616;SDS011;37697;52.588;13.394;2023-11-21T13:38:27;16.30;;;8.80;;
51616;SDS011;37697;52.588;13.394;2023-11-21T13:43:53;16.90;;;9.60;;
51616;SDS011;37697;52.588;13.394;2023-11-21T13:49:19;29.90;;;14.60;;
51616;SDS011;37697;52.588;13.394;2023-11-21T13:54:45;27.50;;;14.50;;
51616;SDS011;37697;52.588;13.394;2023-11-21T14:00:11;24.70;;;13.50;;
51616;SDS011;37697;52.588;13.394;2023-11-21T14:05:38;18.60;;;10.60;;
51616;SDS011;37697;52.588;13.394;2023-11-21T14:11:04;16.40;;;10.40;;
51616;SDS011;37697;52.588;13.394;2023-11-21T14:16:39;16.20;;;10.20;;
51616;SDS011;37697;52.588;13.394;2023-11-21T14:22:06;19.70;;;12.20;;
51616;SDS011;37697;52.588;13.394;2023-11-21T14:27:32;20.80;;;12.90;;
51616;SDS011;37697;52.588;13.394;2023-11-21T14:32:51;18.50;;;12.30;;
51616;SDS011;37697;52.588;13.394;2023-11-21T14:38:17;17.20;;;11.60;;
51616;SDS011;37697;52.588;13.394;2023-11-21T14:43:43;17.60;;;12.20;;
51616;SDS011;37697;52.588;13.394;2023-11-21T14:49:01;16.30;;;11.40;;
51616;SDS011;37697;52.588;13.394;2023-11-21T14:54:28;16.80;;;11.70;;
51616;SDS011;37697;52.588;13.394;2023-11-21T15:00:07;15.90;;;11.60;;
51616;SDS011;37697;52.588;13.394;2023-11-21T15:05:34;15.50;;;10.60;;
51616;SDS011;37697;52.588;13.394;2023-11-21T15:11:00;14.50;;;10.00;;
51616;SDS011;37697;52.588;13.394;2023-11-21T15:16:21;13.40;;;9.60;;
51616;SDS011;37697;52.588;13.394;2023-11-21T15:21:47;17.30;;;10.80;;
51616;SDS011;37697;52.588;13.394;2023-11-21T15:27:13;18.70;;;12.70;;
51616;SDS011;37697;52.588;13.394;2023-11-21T15:32:33;17.70;;;12.00;;
51616;SDS011;37697;52.588;13.394;2023-11-21T15:37:59;18.10;;;12.10;;
51616;SDS011;37697;52.588;13.394;2023-11-21T15:43:25;16.10;;;11.10;;
51616;SDS011;37697;52.588;13.394;2023-11-21T15:48:50;16.40;;;11.40;;
51616;SDS011;37697;52.588;13.394;2023-11-21T15:54:16;15.50;;;10.50;;
51616;SDS011;37697;52.588;13.394;2023-11-21T15:59:24;19.60;;;13.10;;
51616;SDS011;37697;52.588;13.394;2023-11-21T16:04:50;17.10;;;11.10;;
51616;SDS011;37697;52.588;13.394;2023-11-21T16:10:09;14.50;;;9.80;;
51616;SDS011;37697;52.588;13.394;2023-11-21T16:15:19;15.20;;;10.90;;
51616;SDS011;37697;52.588;13.394;2023-11-21T16:20:35;15.20;;;10.50;;
51616;SDS011;37697;52.588;13.394;2023-11-21T16:26:00;16.90;;;10.80;;
51616;SDS011;37697;52.588;13.394;2023-11-21T16:31:26;15.20;;;10.00;;
51616;SDS011;37697;52.588;13.394;2023-11-21T16:36:43;15.40;;;10.70;;
51616;SDS011;37697;52.588;13.394;2023-11-21T16:42:03;16.80;;;10.90;;
51616;SDS011;37697;52.588;13.394;2023-11-21T16:47:09;13.50;;;9.70;;
51616;SDS011;37697;52.588;13.394;2023-11-21T16:52:27;13.80;;;9.70;;
51616;SDS011;37697;52.588;13.394;2023-11-21T16:57:54;13.20;;;9.30;;
51616;SDS011;37697;52.588;13.394;2023-11-21T17:03:19;13.70;;;8.90;;
51616;SDS011;37697;52.588;13.394;2023-11-21T17:08:45;16.00;;;10.50;;
51616;SDS011;37697;52.588;13.394;2023-11-21T17:14:11;16.10;;;9.80;;
51616;SDS011;37697;52.588;13.394;2023-11-21T17:19:37;13.80;;;9.10;;
51616;SDS011;37697;52.588;13.394;2023-11-21T17:25:03;18.80;;;9.50;;
51616;SDS011;37697;52.588;13.394;2023-11-21T17:30:31;13.20;;;8.20;;
51616;SDS011;37697;52.588;13.394;2023-11-21T17:35:57;14.80;;;8.70;;
51616;SDS011;37697;52.588;13.394;2023-11-21T17:41:22;12.00;;;8.50;;
51616;SDS011;37697;52.588;13.394;2023-11-21T17:46:48;12.50;;;7.80;;
51616;SDS011;37697;52.588;13.394;2023-11-21T17:52:15;13.10;;;8.90;;
51616;SDS011;37697;52.588;13.394;2023-11-21T17:57:32;13.60;;;8.70;;
51616;SDS011;37697;52.588;13.394;2023-11-21T18:02:58;15.50;;;9.70;;
51616;SDS011;37697;52.588;13.394;2023-11-21T18:08:24;11.80;;;7.40;;
51616;SDS011;37697;52.588;13.394;2023-11-21T18:13:50;13.20;;;8.80;;
51616;SDS011;37697;52.588;13.394;2023-11-21T18:19:10;15.60;;;8.40;;
51616;SDS011;37697;52.588;13.394;2023-11-21T18:24:35;11.70;;;7.90;;
51616;SDS011;37697;52.588;13.394;2023-11-21T18:29:57;13.40;;;7.60;;
51616;SDS011;37697;52.588;13.394;2023-11-21T18:35:23;13.00;;;7.30;;
51616;SDS011;37697;52.588;13.394;2023-11-21T18:40:49;11.20;;;6.80;;
51616;SDS011;37697;52.588;13.394;2023-11-21T18:46:05;10.40;;;6.80;;
51616;SDS011;37697;52.588;13.394;2023-11-21T18:51:31;10.80;;;6.90;;
51616;SDS011;37697;52.588;13.394;2023-11-21T18:56:57;11.30;;;6.30;;
51616;SDS011;37697;52.588;13.394;2023-11-21T19:02:02;10.50;;;6.30;;
51616;SDS011;37697;52.588;13.394;2023-11-21T19:07:16;11.90;;;6.60;;
51616;SDS011;37697;52.588;13.394;2023-11-21T19:12:33;12.10;;;7.50;;
51616;SDS011;37697;52.588;13.394;2023-11-21T19:17:49;11.80;;;7.10;;
51616;SDS011;37697;52.588;13.394;2023-11-21T19:23:15;11.90;;;7.30;;
51616;SDS011;37697;52.588;13.394;2023-11-21T19:28:24;10.60;;;7.00;;
51616;SDS011;37697;52.588;13.394;2023-11-21T19:33:41;12.40;;;6.70;;
51616;SDS011;37697;52.588;13.394;2023-11-21T19:38:57;11.80;;;7.00;;
51616;SDS011;37697;52.588;13.394;2023-11-21T19:44:23;11.20;;;6.60;;
51616;SDS011;37697;52.588;13.394;2023-11-21T19:49:49;12.10;;;7.30;;
51616;SDS011;37697;52.588;13.394;2023-11-21T19:54:59;13.00;;;7.90;;
51616;SDS011;37697;52.588;13.394;2023-11-21T20:00:18;11.90;;;7.10;;
51616;SDS011;37697;52.588;13.394;2023-11-21T20:05:24;12.30;;;7.60;;
51616;SDS011;37697;52.588;13.394;2023-11-21T20:10:42;13.30;;;8.30;;
51616;SDS011;37697;52.588;13.394;2023-11-21T20:15:50;12.50;;;7.30;;
51616;SDS011;37697;52.588;13.394;2023-11-21T20:21:19;10.10;;;6.30;;
51616;SDS011;37697;52.588;13.394;2023-11-21T20:26:38;12.50;;;8.30;;
51616;SDS011;37697;52.588;13.394;2023-11-21T20:32:05;15.80;;;8.30;;
51616;SDS011;37697;52.588;13.394;2023-11-21T20:37:18;14.10;;;8.60;;
51616;SDS011;37697;52.588;13.394;2023-11-21T20:42:34;12.90;;;7.80;;
51616;SDS011;37697;52.588;13.394;2023-11-21T20:48:00;12.20;;;7.50;;
51616;SDS011;37697;52.588;13.394;2023-11-21T20:53:26;12.20;;;7.20;;
51616;SDS011;37697;52.588;13.394;2023-11-21T20:58:48;14.10;;;6.70;;
51616;SDS011;37697;52.588;13.394;2023-11-21T21:04:13;11.70;;;6.70;;
51616;SDS011;37697;52.588;13.394;2023-11-21T21:09:39;11.80;;;7.10;;
51616;SDS011;37697;52.588;13.394;2023-11-21T21:15:07;11.60;;;7.40;;
51616;SDS011;37697;52.588;13.394;2023-11-21T21:20:34;12.90;;;7.90;;
51616;SDS011;37697;52.588;13.394;2023-11-21T21:25:59;15.70;;;8.90;;
51616;SDS011;37697;52.588;13.394;2023-11-21T21:31:25;14.50;;;8.80;;
51616;SDS011;37697;52.588;13.394;2023-11-21T21:36:51;16.40;;;8.70;;
51616;SDS011;37697;52.588;13.394;2023-11-21T21:42:17;16.60;;;9.10;;
51616;SDS011;37697;52.588;13.394;2023-11-21T21:47:42;14.10;;;7.20;;
51616;SDS011;37697;52.588;13.394;2023-11-21T21:52:51;12.50;;;6.90;;
51616;SDS011;37697;52.588;13.394;2023-11-21T21:58:17;10.40;;;6.30;;
51616;SDS011;37697;52.588;13.394;2023-11-21T22:03:43;10.50;;;5.80;;
51616;SDS011;37697;52.588;13.394;2023-11-21T22:09:09;8.10;;;5.30;;
51616;SDS011;37697;52.588;13.394;2023-11-21T22:14:34;8.20;;;4.90;;
51616;SDS011;37697;52.588;13.394;2023-11-21T22:20:00;9.20;;;5.60;;
51616;SDS011;37697;52.588;13.394;2023-11-21T22:25:26;11.20;;;5.70;;
51616;SDS011;37697;52.588;13.394;2023-11-21T22:30:52;8.20;;;5.10;;
51616;SDS011;37697;52.588;13.394;2023-11-21T22:36:19;7.60;;;4.80;;
51616;SDS011;37697;52.588;13.394;2023-11-21T22:41:45;9.20;;;5.20;;
51616;SDS011;37697;52.588;13.394;2023-11-21T22:47:11;8.60;;;5.10;;
51616;SDS011;37697;52.588;13.394;2023-11-21T22:52:35;9.60;;;5.60;;
51616;SDS011;37697;52.588;13.394;2023-11-21T22:58:01;9.00;;;5.40;;
51616;SDS011;37697;52.588;13.394;2023-11-21T23:03:26;8.00;;;5.50;;
51616;SDS011;37697;52.588;13.394;2023-11-21T23:08:52;9.90;;;5.50;;
51616;SDS011;37697;52.588;13.394;2023-11-21T23:14:18;8.20;;;4.80;;
51616;SDS011;37697;52.588;13.394;2023-11-21T23:19:44;8.50;;;5.20;;
51616;SDS011;37697;52.588;13.394;2023-11-21T23:25:09;11.50;;;6.20;;
51616;SDS011;37697;52.588;13.394;2023-11-21T23:30:35;9.40;;;5.60;;
51616;SDS011;37697;52.588;13.394;2023-11-21T23:36:01;10.20;;;6.00;;
51616;SDS011;37697;52.588;13.394;2023-11-21T23:41:27;9.20;;;5.00;;
51616;SDS011;37697;52.588;13.394;2023-11-21T23:46:53;8.00;;;4.60;;
51616;SDS011;37697;52.588;13.394;2023-11-21T23:52:18;9.00;;;4.80;;
51616;SDS011;37697;52.588;13.394;2023-11-21T23:57:44;8.80;;;4.90;;
